createdAt,value
2023-03-15T00:02:56.811Z,8.77
2023-03-15T00:07:59.001Z,10.95
2023-03-15T00:10:31.300Z,9.45
2023-03-15T00:13:02.677Z,9.20
2023-03-15T00:18:04.900Z,7.53
2023-03-15T00:20:36.278Z,7.97
2023-03-15T00:23:07.476Z,8.57
2023-03-15T00:28:09.559Z,7.70
2023-03-15T00:30:40.987Z,9.10
2023-03-15T00:33:15.271Z,8.70
2023-03-15T00:35:48.111Z,6.97
2023-03-15T00:38:20.214Z,10.00
2023-03-15T00:43:22.056Z,6.20
2023-03-15T00:45:53.220Z,9.57
2023-03-15T00:48:24.490Z,6.78
2023-03-15T00:51:05.980Z,10.63
2023-03-15T00:53:38.849Z,6.72
2023-03-15T00:56:18.394Z,8.68
2023-03-15T00:58:50.518Z,7.35
2023-03-15T01:01:27.845Z,10.45
2023-03-15T01:04:00.147Z,8.95
2023-03-15T01:06:32.052Z,7.05
2023-03-15T01:09:04.099Z,6.28
2023-03-15T01:14:07.578Z,8.00
2023-03-15T01:16:38.825Z,8.65
2023-03-15T01:19:15.260Z,8.25
2023-03-15T01:21:49.337Z,9.65
2023-03-15T01:24:21.331Z,9.02
2023-03-15T01:26:54.181Z,9.00
2023-03-15T01:29:25.577Z,8.63
2023-03-15T01:31:57.003Z,8.98
2023-03-15T01:34:28.491Z,9.00
2023-03-15T01:37:00.003Z,12.65
2023-03-15T01:39:36.912Z,15.18
2023-03-15T01:44:55.492Z,9.55
2023-03-15T01:47:29.888Z,7.68
2023-03-15T01:50:09.625Z,8.48
2023-03-15T01:52:42.624Z,8.10
2023-03-15T01:55:22.304Z,8.85
2023-03-15T01:58:14.965Z,5.95
2023-03-15T02:00:48.464Z,5.47
2023-03-15T02:03:28.033Z,7.35
2023-03-15T02:06:06.959Z,9.30
2023-03-15T02:08:54.435Z,9.32
2023-03-15T02:11:28.499Z,8.20
2023-03-15T02:14:00.657Z,6.55
2023-03-15T02:16:32.877Z,14.98
2023-03-15T02:19:20.717Z,7.65
2023-03-15T02:22:09.353Z,6.10
2023-03-15T02:25:13.344Z,7.90
2023-03-15T02:27:46.173Z,6.75
2023-03-15T02:30:19.292Z,8.25
2023-03-15T02:32:51.173Z,7.90
2023-03-15T02:35:30.738Z,6.30
2023-03-15T02:38:04.279Z,7.43
2023-03-15T02:40:36.154Z,5.88
2023-03-15T02:43:13.386Z,7.30
2023-03-15T02:45:45.442Z,8.73
2023-03-15T02:48:17.072Z,7.28
2023-03-15T02:50:48.780Z,6.85
2023-03-15T02:53:24.590Z,9.75
2023-03-15T02:55:56.223Z,8.10
2023-03-15T02:58:28.033Z,6.63
2023-03-15T03:01:00.262Z,5.80
2023-03-15T03:03:31.488Z,7.35
2023-03-15T03:06:05.175Z,7.45
2023-03-15T03:08:36.684Z,8.02
2023-03-15T03:11:09.864Z,8.63
2023-03-15T03:13:41.397Z,7.15
2023-03-15T03:16:13.626Z,7.57
2023-03-15T03:18:46.484Z,6.00
2023-03-15T03:23:48.436Z,8.30
2023-03-15T03:28:53.558Z,6.10
2023-03-15T03:31:27.993Z,6.03
2023-03-15T03:34:00.326Z,6.18
2023-03-15T03:36:33.228Z,8.27
2023-03-15T03:39:06.072Z,6.60
2023-03-15T03:41:38.080Z,8.85
2023-03-15T03:44:10.420Z,7.43
2023-03-15T03:46:42.767Z,7.50
2023-03-15T03:49:16.332Z,6.05
2023-03-15T03:51:47.451Z,5.63
2023-03-15T03:54:19.898Z,7.85
2023-03-15T03:56:51.456Z,5.57
2023-03-15T03:59:24.704Z,6.95
2023-03-15T04:02:05.412Z,8.40
2023-03-15T04:04:38.620Z,7.40
2023-03-15T04:07:12.863Z,8.23
2023-03-15T04:09:45.214Z,7.18
2023-03-15T04:12:17.082Z,6.13
2023-03-15T04:14:49.900Z,8.15
2023-03-15T04:17:22.243Z,9.80
2023-03-15T04:19:54.249Z,7.57
2023-03-15T04:22:30.821Z,5.97
2023-03-15T04:25:28.097Z,7.68
2023-03-15T04:28:14.412Z,5.95
2023-03-15T04:30:53.288Z,7.50
2023-03-15T04:33:50.567Z,6.85
2023-03-15T04:36:44.205Z,7.75
2023-03-15T04:39:32.198Z,6.85
2023-03-15T04:42:30.004Z,10.00
2023-03-15T04:45:30.500Z,7.30
2023-03-15T04:48:02.920Z,8.38
2023-03-15T04:50:43.718Z,6.90
2023-03-15T04:53:22.114Z,6.47
2023-03-15T04:56:22.378Z,5.93
2023-03-15T04:59:12.686Z,5.82
2023-03-15T05:02:16.144Z,5.95
2023-03-15T05:05:19.788Z,6.22
2023-03-15T05:08:17.358Z,7.07
2023-03-15T05:11:06.508Z,7.10
2023-03-15T05:14:09.986Z,9.52
2023-03-15T05:17:06.976Z,8.15
2023-03-15T05:19:50.610Z,7.63
2023-03-15T05:22:37.761Z,8.57
2023-03-15T05:25:27.223Z,8.13
2023-03-15T05:28:28.670Z,8.65
2023-03-15T05:31:25.512Z,11.80
2023-03-15T05:34:14.758Z,9.55
2023-03-15T05:37:04.042Z,9.63
2023-03-15T05:40:02.932Z,12.70
2023-03-15T05:42:34.750Z,10.80
2023-03-15T05:45:32.356Z,10.13
2023-03-15T05:48:23.528Z,10.60
2023-03-15T05:51:01.603Z,10.05
2023-03-15T05:53:50.379Z,8.15
2023-03-15T05:56:52.537Z,10.95
2023-03-15T05:59:38.766Z,10.25
2023-03-15T06:02:18.847Z,11.07
2023-03-15T06:05:03.535Z,10.32
2023-03-15T06:07:34.918Z,12.93
2023-03-15T06:10:08.243Z,13.63
2023-03-15T06:12:39.488Z,9.43
2023-03-15T06:15:11.345Z,10.07
2023-03-15T06:17:43.126Z,9.70
2023-03-15T06:20:14.797Z,12.88
2023-03-15T06:22:46.668Z,9.60
2023-03-15T06:25:38.403Z,10.38
2023-03-15T06:28:10.103Z,11.07
2023-03-15T06:30:45.885Z,10.00
2023-03-15T06:33:18.283Z,9.43
2023-03-15T06:35:50.983Z,10.65
2023-03-15T06:38:22.432Z,11.50
2023-03-15T06:43:24.817Z,10.90
2023-03-15T06:45:58.275Z,12.68
2023-03-15T06:48:33.143Z,11.68
2023-03-15T06:51:07.388Z,9.63
2023-03-15T06:53:39.772Z,11.40
2023-03-15T06:56:11.413Z,7.70
2023-03-15T06:58:42.787Z,10.75
2023-03-15T07:01:16.276Z,9.57
2023-03-15T07:03:47.734Z,10.40
2023-03-15T07:06:18.946Z,11.07
2023-03-15T07:08:50.302Z,9.40
2023-03-15T07:11:22.374Z,10.45
2023-03-15T07:13:53.632Z,10.35
2023-03-15T07:16:25.284Z,8.88
2023-03-15T07:18:58.007Z,10.50
2023-03-15T07:21:29.936Z,9.80
2023-03-15T07:24:01.094Z,9.85
2023-03-15T07:26:32.532Z,9.27
2023-03-15T07:29:03.657Z,15.15
2023-03-15T07:31:35.237Z,10.02
2023-03-15T07:34:06.376Z,8.15
2023-03-15T07:36:38.397Z,9.15
2023-03-15T07:39:09.609Z,10.50
2023-03-15T07:41:41.069Z,11.23
2023-03-15T07:44:24.403Z,8.15
2023-03-15T07:46:57.369Z,10.80
2023-03-15T07:49:28.614Z,10.32
2023-03-15T07:52:00.133Z,11.73
2023-03-15T07:54:33.138Z,10.57
2023-03-15T07:57:04.446Z,10.00
2023-03-15T07:59:35.820Z,9.43
2023-03-15T08:02:07.544Z,10.63
2023-03-15T08:07:12.703Z,9.63
2023-03-15T08:09:43.985Z,7.70
2023-03-15T08:12:15.441Z,10.73
2023-03-15T08:17:17.734Z,13.40
2023-03-15T08:19:49.057Z,12.13
2023-03-15T08:22:20.950Z,10.80
2023-03-15T08:24:54.803Z,10.18
2023-03-15T08:27:29.900Z,9.98
2023-03-15T08:30:01.575Z,12.93
2023-03-15T08:32:35.020Z,10.93
2023-03-15T08:35:07.003Z,9.88
2023-03-15T08:37:38.489Z,9.45
2023-03-15T08:40:12.678Z,9.68
2023-03-15T08:42:44.112Z,10.90
2023-03-15T08:47:46.007Z,9.15
2023-03-15T08:50:20.607Z,10.98
2023-03-15T08:52:52.251Z,11.68
2023-03-15T08:57:53.987Z,11.60
2023-03-15T09:00:26.513Z,10.35
2023-03-15T09:02:57.809Z,12.02
2023-03-15T09:05:30.134Z,10.50
2023-03-15T09:08:03.314Z,11.63
2023-03-15T09:10:35.846Z,8.23
2023-03-15T09:13:07.069Z,11.43
2023-03-15T09:15:38.217Z,9.75
2023-03-15T09:18:09.793Z,9.85
2023-03-15T09:20:41.267Z,9.90
2023-03-15T09:23:12.574Z,12.30
2023-03-15T09:28:14.968Z,13.82
2023-03-15T09:30:46.276Z,9.75
2023-03-15T09:33:17.689Z,14.02
2023-03-15T09:35:48.894Z,10.32
2023-03-15T09:38:21.698Z,12.10
2023-03-15T09:40:53.234Z,15.93
2023-03-15T09:43:42.485Z,11.82
2023-03-15T09:46:27.433Z,9.35
2023-03-15T09:49:23.793Z,11.80
2023-03-15T09:52:03.462Z,11.07
2023-03-15T09:55:00.905Z,9.02
2023-03-15T09:57:39.783Z,10.23
2023-03-15T10:00:19.883Z,7.03
2023-03-15T10:03:03.078Z,11.10
2023-03-15T10:05:49.034Z,8.55
2023-03-15T10:08:21.431Z,13.38
2023-03-15T10:11:15.624Z,11.13
2023-03-15T10:14:06.852Z,9.90
2023-03-15T10:16:56.421Z,12.85
2023-03-15T10:19:30.194Z,10.23
2023-03-15T10:22:16.607Z,12.73
2023-03-15T10:25:09.286Z,10.43
2023-03-15T10:27:56.812Z,10.93
2023-03-15T10:30:34.597Z,11.48
2023-03-15T10:33:25.866Z,11.45
2023-03-15T10:36:09.703Z,11.73
2023-03-15T10:38:43.349Z,10.60
2023-03-15T10:41:23.423Z,7.75
2023-03-15T10:44:30.632Z,9.65
2023-03-15T10:47:23.151Z,15.35
2023-03-15T10:50:00.338Z,14.70
2023-03-15T10:52:42.643Z,10.63
2023-03-15T10:55:20.164Z,11.10
2023-03-15T10:58:02.480Z,10.82
2023-03-15T11:00:36.149Z,10.50
2023-03-15T11:03:18.848Z,10.20
2023-03-15T11:05:54.964Z,11.25
2023-03-15T11:08:40.817Z,9.82
2023-03-15T11:11:12.466Z,10.30
2023-03-15T11:13:44.910Z,9.77
2023-03-15T11:16:16.468Z,10.75
2023-03-15T11:18:50.212Z,7.55
2023-03-15T11:21:23.096Z,12.40
2023-03-15T11:23:54.661Z,9.48
2023-03-15T11:26:35.065Z,13.23
2023-03-15T11:29:28.160Z,10.55
2023-03-15T11:32:00.743Z,8.68
2023-03-15T11:34:51.331Z,11.50
2023-03-15T11:37:25.896Z,9.50
2023-03-15T11:40:18.497Z,13.27
2023-03-15T11:43:12.312Z,7.55
2023-03-15T11:45:58.007Z,9.43
2023-03-15T11:48:51.004Z,10.38
2023-03-15T11:51:22.381Z,8.52
2023-03-15T11:54:09.835Z,11.70
2023-03-15T11:56:54.852Z,8.82
2023-03-15T11:59:34.019Z,11.65
2023-03-15T12:02:28.386Z,9.50
2023-03-15T12:05:06.273Z,9.30
2023-03-15T12:08:19.032Z,9.65
2023-03-15T12:10:51.271Z,10.73
2023-03-15T12:13:27.548Z,9.77
2023-03-15T12:16:00.199Z,9.98
2023-03-15T12:18:34.789Z,10.05
2023-03-15T12:21:09.000Z,20.65
2023-03-15T12:23:57.600Z,19.02
2023-03-15T12:26:35.086Z,14.93
2023-03-15T12:29:36.177Z,14.18
2023-03-15T12:32:24.724Z,10.52
2023-03-15T12:34:58.587Z,15.27
2023-03-15T12:37:41.614Z,12.32
2023-03-15T12:40:26.230Z,11.20
2023-03-15T12:42:58.935Z,11.90
2023-03-15T12:45:37.394Z,13.30
2023-03-15T12:48:14.186Z,13.48
2023-03-15T12:50:46.221Z,13.27
2023-03-15T12:53:20.163Z,16.00
2023-03-15T12:56:02.830Z,12.98
2023-03-15T12:58:39.905Z,17.67
2023-03-15T13:03:41.787Z,11.20
2023-03-15T13:06:32.028Z,13.77
2023-03-15T13:09:34.590Z,16.45
2023-03-15T13:12:22.784Z,16.55
2023-03-15T13:14:56.750Z,10.15
2023-03-15T13:18:11.552Z,11.80
2023-03-15T13:21:07.751Z,12.15
2023-03-15T13:23:40.205Z,10.48
2023-03-15T13:26:30.231Z,12.48
2023-03-15T13:29:08.041Z,11.55
2023-03-15T13:31:40.176Z,13.48
2023-03-15T13:34:25.895Z,11.32
2023-03-15T13:37:01.748Z,9.32
2023-03-15T13:39:34.846Z,12.23
2023-03-15T13:42:20.731Z,9.60
2023-03-15T13:45:17.035Z,9.88
2023-03-15T13:47:49.374Z,7.55
2023-03-15T13:50:22.710Z,8.68
2023-03-15T13:52:54.412Z,9.25
2023-03-15T13:55:26.766Z,8.68
2023-03-15T13:58:01.571Z,10.40
2023-03-15T14:00:35.342Z,11.00
2023-03-15T14:03:15.565Z,9.52
2023-03-15T14:05:49.618Z,7.63
2023-03-15T14:08:37.239Z,9.82
2023-03-15T14:11:12.800Z,9.57
2023-03-15T14:13:55.619Z,8.93
2023-03-15T14:17:01.181Z,8.80
2023-03-15T14:19:36.582Z,7.40
2023-03-15T14:22:19.923Z,6.75
2023-03-15T14:24:53.370Z,7.80
2023-03-15T14:27:28.805Z,9.85
2023-03-15T14:30:04.276Z,9.35
2023-03-15T14:32:38.361Z,12.88
2023-03-15T14:35:47.458Z,10.43
2023-03-15T14:38:23.835Z,11.18
2023-03-15T14:40:57.116Z,5.60
2023-03-15T14:43:28.575Z,5.35
2023-03-15T14:45:59.990Z,6.15
2023-03-15T14:48:33.397Z,3.45
2023-03-15T14:51:05.913Z,4.90
2023-03-15T14:53:39.430Z,5.22
2023-03-15T14:56:12.513Z,5.53
2023-03-15T14:58:44.654Z,5.05
2023-03-15T15:01:18.885Z,6.80
2023-03-15T15:03:53.803Z,6.43
2023-03-15T15:06:24.946Z,6.63
2023-03-15T15:09:00.199Z,6.22
2023-03-15T15:11:31.356Z,5.47
2023-03-15T15:14:02.676Z,4.60
2023-03-15T15:16:34.095Z,7.70
2023-03-15T15:19:06.313Z,6.63
2023-03-15T15:21:38.088Z,6.88
2023-03-15T15:24:20.943Z,7.22
2023-03-15T15:26:52.287Z,7.90
2023-03-15T15:29:23.586Z,8.95
2023-03-15T15:31:55.103Z,9.43
2023-03-15T15:34:26.364Z,11.63
2023-03-15T15:36:58.389Z,10.13
2023-03-15T15:39:31.077Z,10.15
2023-03-15T15:42:02.295Z,9.52
2023-03-15T15:44:33.428Z,6.50
2023-03-15T15:47:04.560Z,8.82
2023-03-15T15:49:35.616Z,8.48
2023-03-15T15:52:07.180Z,5.47
2023-03-15T15:54:38.957Z,7.05
2023-03-15T15:57:14.506Z,7.85
2023-03-15T15:59:46.410Z,6.95
2023-03-15T16:02:23.616Z,7.15
2023-03-15T16:04:56.533Z,6.22
2023-03-15T16:07:27.734Z,5.57
2023-03-15T16:09:59.430Z,5.53
2023-03-15T16:12:30.774Z,7.40
2023-03-15T16:15:02.208Z,5.28
2023-03-15T16:20:08.500Z,7.25
2023-03-15T16:22:41.496Z,9.55
2023-03-15T16:25:18.345Z,7.55
2023-03-15T16:27:49.621Z,12.43
2023-03-15T16:30:28.932Z,9.10
2023-03-15T16:33:00.320Z,10.23
2023-03-15T16:35:37.430Z,8.52
2023-03-15T16:38:10.379Z,7.15
2023-03-15T16:40:43.928Z,7.13
2023-03-15T16:43:16.067Z,10.30
2023-03-15T16:45:47.855Z,14.48
2023-03-15T16:48:19.225Z,7.68
2023-03-15T16:50:50.434Z,10.82
2023-03-15T16:53:21.676Z,6.53
2023-03-15T16:55:53.501Z,10.43
2023-03-15T16:58:24.968Z,9.57
2023-03-15T17:00:56.217Z,7.47
2023-03-15T17:03:29.081Z,6.18
2023-03-15T17:06:00.707Z,5.78
2023-03-15T17:08:32.057Z,6.38
2023-03-15T17:11:03.969Z,8.88
2023-03-15T17:13:36.099Z,7.72
2023-03-15T17:16:08.205Z,8.30
2023-03-15T17:18:39.620Z,6.22
2023-03-15T17:21:16.517Z,6.82
2023-03-15T17:23:49.668Z,6.47
2023-03-15T17:26:25.953Z,5.38
2023-03-15T17:28:57.840Z,4.93
2023-03-15T17:36:35.684Z,6.40
2023-03-15T17:39:08.332Z,4.07
2023-03-15T17:41:42.851Z,4.75
2023-03-15T17:44:14.621Z,5.80
2023-03-15T17:49:17.802Z,4.97
2023-03-15T17:51:49.117Z,4.18
2023-03-15T17:54:20.847Z,4.88
2023-03-15T17:56:53.454Z,7.55
2023-03-15T17:59:24.555Z,3.83
2023-03-15T18:01:55.836Z,3.72
2023-03-15T18:04:27.550Z,4.03
2023-03-15T18:06:59.068Z,4.72
2023-03-15T18:09:30.720Z,5.50
2023-03-15T18:12:01.851Z,4.05
2023-03-15T18:14:38.674Z,5.13
2023-03-15T18:17:10.011Z,3.25
2023-03-15T18:19:41.625Z,4.15
2023-03-15T18:22:18.345Z,5.53
2023-03-15T18:24:49.892Z,6.05
2023-03-15T18:27:21.412Z,3.80
2023-03-15T18:29:54.089Z,3.28
2023-03-15T18:32:25.362Z,4.32
2023-03-15T18:34:57.976Z,3.67
2023-03-15T18:37:29.411Z,4.70
2023-03-15T18:40:00.726Z,5.78
2023-03-15T18:42:33.123Z,5.72
2023-03-15T18:45:04.617Z,6.35
2023-03-15T18:47:36.118Z,5.50
2023-03-15T18:50:10.548Z,6.68
2023-03-15T18:52:42.393Z,6.63
2023-03-15T18:55:18.395Z,6.47
2023-03-15T18:57:51.354Z,6.70
2023-03-15T19:00:27.388Z,11.98
2023-03-15T19:03:01.289Z,8.43
2023-03-15T19:05:34.938Z,6.75
2023-03-15T19:08:06.882Z,7.90
2023-03-15T19:10:38.132Z,6.57
2023-03-15T19:13:09.973Z,5.45
2023-03-15T19:15:41.373Z,6.15
2023-03-15T19:18:12.758Z,6.53
2023-03-15T19:20:44.090Z,6.20
2023-03-15T19:23:15.555Z,8.25
2023-03-15T19:25:47.740Z,6.00
2023-03-15T19:28:19.116Z,5.40
2023-03-15T19:30:51.516Z,7.15
2023-03-15T19:33:22.635Z,5.90
2023-03-15T19:35:54.778Z,4.40
2023-03-15T19:41:00.420Z,4.43
2023-03-15T19:43:31.615Z,4.38
2023-03-15T19:46:03.417Z,5.00
2023-03-15T19:48:34.348Z,7.88
2023-03-15T19:51:05.981Z,9.73
2023-03-15T19:53:37.363Z,8.23
2023-03-15T19:56:09.969Z,6.18
2023-03-15T19:58:41.632Z,5.22
2023-03-15T20:01:13.034Z,5.40
2023-03-15T20:03:44.737Z,8.75
2023-03-15T20:06:16.348Z,16.33
2023-03-15T20:11:26.409Z,7.93
2023-03-15T20:13:57.641Z,9.35
2023-03-15T20:16:29.258Z,7.82
2023-03-15T20:19:00.615Z,8.90
2023-03-15T20:21:32.013Z,8.77
2023-03-15T20:24:03.379Z,7.70
2023-03-15T20:26:34.474Z,9.38
2023-03-15T20:29:05.697Z,7.77
2023-03-15T20:31:37.151Z,10.10
2023-03-15T20:34:10.544Z,8.02
2023-03-15T20:36:41.982Z,8.90
2023-03-15T20:39:13.323Z,7.25
2023-03-15T20:41:44.465Z,9.52
2023-03-15T20:44:15.621Z,9.65
2023-03-15T20:46:46.828Z,9.38
2023-03-15T20:49:19.003Z,9.43
2023-03-15T20:51:50.226Z,7.35
2023-03-15T20:54:21.379Z,9.02
2023-03-15T20:56:52.650Z,11.05
2023-03-15T20:59:24.789Z,10.70
2023-03-15T21:01:57.282Z,8.55
2023-03-15T21:04:29.577Z,8.05
2023-03-15T21:07:05.863Z,8.52
2023-03-15T21:09:40.377Z,9.70
2023-03-15T21:12:12.093Z,11.25
2023-03-15T21:14:43.920Z,7.97
2023-03-15T21:17:16.119Z,7.75
2023-03-15T21:19:50.383Z,11.05
2023-03-15T21:22:22.171Z,11.25
2023-03-15T21:24:56.105Z,11.95
2023-03-15T21:27:30.794Z,9.35
2023-03-15T21:30:02.797Z,8.85
2023-03-15T21:32:39.448Z,8.15
2023-03-15T21:35:10.987Z,10.40
2023-03-15T21:37:42.182Z,8.98
2023-03-15T21:40:17.632Z,7.43
2023-03-15T21:42:56.526Z,9.77
2023-03-15T21:45:28.190Z,9.10
2023-03-15T21:50:33.103Z,12.32
2023-03-15T21:53:05.001Z,7.85
2023-03-15T21:55:36.355Z,9.85
2023-03-15T21:58:08.088Z,9.90
2023-03-15T22:00:43.439Z,10.63
2023-03-15T22:03:15.603Z,9.60
2023-03-15T22:05:50.730Z,7.65
2023-03-15T22:08:22.846Z,5.65
2023-03-15T22:10:58.742Z,8.57
2023-03-15T22:13:31.614Z,5.35
2023-03-15T22:16:03.024Z,6.68
2023-03-15T22:18:34.421Z,6.55
2023-03-15T22:21:06.266Z,7.40
2023-03-15T22:23:37.796Z,8.48
2023-03-15T22:26:09.795Z,7.43
2023-03-15T22:28:41.294Z,11.10
2023-03-15T22:31:13.242Z,5.65
2023-03-15T22:33:47.913Z,8.43
2023-03-15T22:36:21.205Z,6.88
2023-03-15T22:38:53.672Z,8.63
2023-03-15T22:41:25.870Z,8.77
2023-03-15T22:43:57.782Z,6.63
2023-03-15T22:46:35.209Z,6.40
2023-03-15T22:49:06.899Z,6.35
2023-03-15T22:54:12.128Z,8.15
2023-03-15T22:56:43.428Z,9.13
2023-03-15T22:59:15.021Z,6.75
2023-03-15T23:01:47.222Z,9.40
2023-03-15T23:06:50.646Z,6.28
2023-03-15T23:09:23.346Z,6.80
2023-03-15T23:11:54.435Z,5.80
2023-03-15T23:14:25.788Z,8.20
2023-03-15T23:16:57.212Z,9.18
2023-03-15T23:19:28.656Z,7.03
2023-03-15T23:21:59.891Z,7.15
2023-03-15T23:24:31.176Z,5.97
2023-03-15T23:27:04.941Z,7.80
2023-03-15T23:29:53.035Z,7.07
2023-03-15T23:32:28.759Z,6.80
2023-03-15T23:35:00.097Z,8.32
2023-03-15T23:37:32.922Z,9.05
2023-03-15T23:40:04.176Z,5.80
2023-03-15T23:42:37.131Z,7.65
2023-03-15T23:45:09.237Z,7.20
2023-03-15T23:47:41.647Z,5.85
2023-03-15T23:50:14.895Z,8.38
2023-03-15T23:52:46.104Z,7.45
2023-03-15T23:57:48.107Z,8.00
